sensor_id;sensor_type;location;lat;lon;timestamp;P1;durP1;ratioP1;P2;durP2;ratioP2
1531;SDS011;759;53.170;8.210;2022-12-24T00:02:05;24.47;;;13.17;;
1531;SDS011;759;53.170;8.210;2022-12-24T00:04:31;19.57;;;11.27;;
1531;SDS011;759;53.170;8.210;2022-12-24T00:06:56;18.17;;;11.77;;
1531;SDS011;759;53.170;8.210;2022-12-24T00:09:21;20.53;;;11.17;;
1531;SDS011;759;53.170;8.210;2022-12-24T00:11:47;19.57;;;11.10;;
1531;SDS011;759;53.170;8.210;2022-12-24T00:14:12;19.93;;;10.20;;
1531;SDS011;759;53.170;8.210;2022-12-24T00:16:37;20.77;;;12.10;;
1531;SDS011;759;53.170;8.210;2022-12-24T00:19:02;21.20;;;12.90;;
1531;SDS011;759;53.170;8.210;2022-12-24T00:21:28;19.30;;;11.77;;
1531;SDS011;759;53.170;8.210;2022-12-24T00:23:53;19.97;;;11.20;;
1531;SDS011;759;53.170;8.210;2022-12-24T00:26:18;20.00;;;11.20;;
1531;SDS011;759;53.170;8.210;2022-12-24T00:28:43;21.87;;;10.90;;
1531;SDS011;759;53.170;8.210;2022-12-24T00:33:38;26.93;;;13.17;;
1531;SDS011;759;53.170;8.210;2022-12-24T00:36:04;21.93;;;12.90;;
1531;SDS011;759;53.170;8.210;2022-12-24T00:38:30;23.83;;;12.20;;
1531;SDS011;759;53.170;8.210;2022-12-24T00:40:59;25.20;;;13.03;;
1531;SDS011;759;53.170;8.210;2022-12-24T00:43:26;25.33;;;14.20;;
1531;SDS011;759;53.170;8.210;2022-12-24T00:45:52;19.57;;;12.87;;
1531;SDS011;759;53.170;8.210;2022-12-24T00:48:17;18.90;;;12.63;;
1531;SDS011;759;53.170;8.210;2022-12-24T00:50:43;27.77;;;13.00;;
1531;SDS011;759;53.170;8.210;2022-12-24T00:53:08;22.20;;;11.93;;
1531;SDS011;759;53.170;8.210;2022-12-24T00:55:33;20.30;;;12.93;;
1531;SDS011;759;53.170;8.210;2022-12-24T00:57:58;20.27;;;11.93;;
1531;SDS011;759;53.170;8.210;2022-12-24T01:00:24;20.37;;;11.57;;
1531;SDS011;759;53.170;8.210;2022-12-24T01:02:49;20.80;;;13.10;;
1531;SDS011;759;53.170;8.210;2022-12-24T01:05:14;20.47;;;12.33;;
1531;SDS011;759;53.170;8.210;2022-12-24T01:07:43;16.97;;;9.90;;
1531;SDS011;759;53.170;8.210;2022-12-24T01:10:09;16.50;;;11.17;;
1531;SDS011;759;53.170;8.210;2022-12-24T01:12:35;18.23;;;11.57;;
1531;SDS011;759;53.170;8.210;2022-12-24T01:15:01;15.17;;;9.93;;
1531;SDS011;759;53.170;8.210;2022-12-24T01:17:27;18.07;;;10.93;;
1531;SDS011;759;53.170;8.210;2022-12-24T01:19:55;27.80;;;11.73;;
1531;SDS011;759;53.170;8.210;2022-12-24T01:22:21;17.77;;;11.00;;
1531;SDS011;759;53.170;8.210;2022-12-24T01:24:46;17.90;;;10.40;;
1531;SDS011;759;53.170;8.210;2022-12-24T01:27:11;21.97;;;12.13;;
1531;SDS011;759;53.170;8.210;2022-12-24T01:29:37;17.23;;;9.83;;
1531;SDS011;759;53.170;8.210;2022-12-24T01:32:02;21.53;;;11.47;;
1531;SDS011;759;53.170;8.210;2022-12-24T01:34:28;20.07;;;9.80;;
1531;SDS011;759;53.170;8.210;2022-12-24T01:36:53;17.10;;;11.13;;
1531;SDS011;759;53.170;8.210;2022-12-24T01:39:18;13.30;;;10.13;;
1531;SDS011;759;53.170;8.210;2022-12-24T01:41:43;20.37;;;12.10;;
1531;SDS011;759;53.170;8.210;2022-12-24T01:44:47;17.53;;;11.07;;
1531;SDS011;759;53.170;8.210;2022-12-24T01:47:25;14.83;;;8.87;;
1531;SDS011;759;53.170;8.210;2022-12-24T01:49:55;12.27;;;8.90;;
1531;SDS011;759;53.170;8.210;2022-12-24T01:52:30;14.57;;;9.80;;
1531;SDS011;759;53.170;8.210;2022-12-24T01:55:12;17.50;;;9.50;;
1531;SDS011;759;53.170;8.210;2022-12-24T01:57:53;13.07;;;8.43;;
1531;SDS011;759;53.170;8.210;2022-12-24T02:00:21;16.47;;;9.97;;
1531;SDS011;759;53.170;8.210;2022-12-24T02:02:47;15.33;;;10.40;;
1531;SDS011;759;53.170;8.210;2022-12-24T02:08:00;19.37;;;11.20;;
1531;SDS011;759;53.170;8.210;2022-12-24T02:10:27;15.17;;;10.80;;
1531;SDS011;759;53.170;8.210;2022-12-24T02:12:52;16.90;;;10.67;;
1531;SDS011;759;53.170;8.210;2022-12-24T02:15:18;15.33;;;9.80;;
1531;SDS011;759;53.170;8.210;2022-12-24T02:20:29;16.10;;;10.63;;
1531;SDS011;759;53.170;8.210;2022-12-24T02:26:08;19.03;;;11.10;;
1531;SDS011;759;53.170;8.210;2022-12-24T02:29:08;16.60;;;11.00;;
1531;SDS011;759;53.170;8.210;2022-12-24T02:34:06;16.57;;;10.37;;
1531;SDS011;759;53.170;8.210;2022-12-24T02:37:02;18.47;;;12.20;;
1531;SDS011;759;53.170;8.210;2022-12-24T02:39:53;17.87;;;10.43;;
1531;SDS011;759;53.170;8.210;2022-12-24T02:42:22;17.80;;;11.80;;
1531;SDS011;759;53.170;8.210;2022-12-24T02:44:53;17.10;;;11.83;;
1531;SDS011;759;53.170;8.210;2022-12-24T02:47:23;19.33;;;12.10;;
1531;SDS011;759;53.170;8.210;2022-12-24T02:49:51;18.30;;;10.60;;
1531;SDS011;759;53.170;8.210;2022-12-24T02:52:27;19.57;;;10.97;;
1531;SDS011;759;53.170;8.210;2022-12-24T02:54:53;19.30;;;12.23;;
1531;SDS011;759;53.170;8.210;2022-12-24T03:00:12;19.47;;;11.00;;
1531;SDS011;759;53.170;8.210;2022-12-24T03:10:49;21.20;;;11.07;;
1531;SDS011;759;53.170;8.210;2022-12-24T03:13:22;16.90;;;10.47;;
1531;SDS011;759;53.170;8.210;2022-12-24T03:15:49;19.10;;;11.53;;
1531;SDS011;759;53.170;8.210;2022-12-24T03:18:20;16.40;;;10.40;;
1531;SDS011;759;53.170;8.210;2022-12-24T03:21:04;20.57;;;11.27;;
1531;SDS011;759;53.170;8.210;2022-12-24T03:23:30;19.13;;;10.63;;
1531;SDS011;759;53.170;8.210;2022-12-24T03:25:56;18.07;;;10.03;;
1531;SDS011;759;53.170;8.210;2022-12-24T03:28:26;18.73;;;10.23;;
1531;SDS011;759;53.170;8.210;2022-12-24T03:30:52;17.30;;;10.63;;
1531;SDS011;759;53.170;8.210;2022-12-24T03:33:17;18.10;;;11.23;;
1531;SDS011;759;53.170;8.210;2022-12-24T03:35:43;16.80;;;11.47;;
1531;SDS011;759;53.170;8.210;2022-12-24T03:38:09;17.83;;;10.60;;
1531;SDS011;759;53.170;8.210;2022-12-24T03:40:34;18.67;;;10.40;;
1531;SDS011;759;53.170;8.210;2022-12-24T03:42:59;18.80;;;10.30;;
1531;SDS011;759;53.170;8.210;2022-12-24T03:45:25;16.57;;;10.57;;
1531;SDS011;759;53.170;8.210;2022-12-24T03:47:50;15.73;;;10.03;;
1531;SDS011;759;53.170;8.210;2022-12-24T03:50:15;20.33;;;11.90;;
1531;SDS011;759;53.170;8.210;2022-12-24T03:52:41;14.67;;;9.80;;
1531;SDS011;759;53.170;8.210;2022-12-24T03:55:06;16.77;;;10.93;;
1531;SDS011;759;53.170;8.210;2022-12-24T03:57:32;20.30;;;12.50;;
1531;SDS011;759;53.170;8.210;2022-12-24T03:59:57;16.83;;;10.50;;
1531;SDS011;759;53.170;8.210;2022-12-24T04:02:22;19.10;;;11.17;;
1531;SDS011;759;53.170;8.210;2022-12-24T04:04:47;18.07;;;11.00;;
1531;SDS011;759;53.170;8.210;2022-12-24T04:07:13;21.40;;;12.37;;
1531;SDS011;759;53.170;8.210;2022-12-24T04:09:38;22.37;;;11.63;;
1531;SDS011;759;53.170;8.210;2022-12-24T04:12:04;20.53;;;12.10;;
1531;SDS011;759;53.170;8.210;2022-12-24T04:14:30;21.13;;;12.80;;
1531;SDS011;759;53.170;8.210;2022-12-24T04:16:55;17.97;;;11.67;;
1531;SDS011;759;53.170;8.210;2022-12-24T04:19:21;19.73;;;11.97;;
1531;SDS011;759;53.170;8.210;2022-12-24T04:21:46;20.77;;;12.30;;
1531;SDS011;759;53.170;8.210;2022-12-24T04:24:11;23.50;;;12.67;;
1531;SDS011;759;53.170;8.210;2022-12-24T04:26:37;22.97;;;12.90;;
1531;SDS011;759;53.170;8.210;2022-12-24T04:29:02;20.10;;;11.87;;
1531;SDS011;759;53.170;8.210;2022-12-24T04:31:27;23.47;;;13.70;;
1531;SDS011;759;53.170;8.210;2022-12-24T04:33:52;27.03;;;13.20;;
1531;SDS011;759;53.170;8.210;2022-12-24T04:36:18;19.70;;;13.03;;
1531;SDS011;759;53.170;8.210;2022-12-24T04:38:44;21.60;;;12.20;;
1531;SDS011;759;53.170;8.210;2022-12-24T04:41:11;28.40;;;14.83;;
1531;SDS011;759;53.170;8.210;2022-12-24T04:43:38;24.63;;;13.93;;
1531;SDS011;759;53.170;8.210;2022-12-24T04:46:07;29.53;;;15.03;;
1531;SDS011;759;53.170;8.210;2022-12-24T04:48:34;31.97;;;14.53;;
1531;SDS011;759;53.170;8.210;2022-12-24T04:51:03;27.73;;;15.00;;
1531;SDS011;759;53.170;8.210;2022-12-24T04:53:29;27.47;;;15.23;;
1531;SDS011;759;53.170;8.210;2022-12-24T04:55:55;31.60;;;14.50;;
1531;SDS011;759;53.170;8.210;2022-12-24T04:58:21;32.80;;;16.60;;
1531;SDS011;759;53.170;8.210;2022-12-24T05:00:47;34.40;;;15.37;;
1531;SDS011;759;53.170;8.210;2022-12-24T05:03:12;33.73;;;15.30;;
1531;SDS011;759;53.170;8.210;2022-12-24T05:05:37;35.90;;;17.47;;
1531;SDS011;759;53.170;8.210;2022-12-24T05:08:03;39.20;;;16.60;;
1531;SDS011;759;53.170;8.210;2022-12-24T05:10:28;36.30;;;16.67;;
1531;SDS011;759;53.170;8.210;2022-12-24T05:12:53;40.67;;;17.27;;
1531;SDS011;759;53.170;8.210;2022-12-24T05:15:19;37.17;;;17.30;;
1531;SDS011;759;53.170;8.210;2022-12-24T05:17:44;39.70;;;17.47;;
1531;SDS011;759;53.170;8.210;2022-12-24T05:20:10;37.33;;;17.00;;
1531;SDS011;759;53.170;8.210;2022-12-24T05:22:35;32.10;;;14.60;;
1531;SDS011;759;53.170;8.210;2022-12-24T05:25:19;32.13;;;17.00;;
1531;SDS011;759;53.170;8.210;2022-12-24T05:28:19;29.93;;;15.13;;
1531;SDS011;759;53.170;8.210;2022-12-24T05:30:45;34.83;;;16.30;;
1531;SDS011;759;53.170;8.210;2022-12-24T05:33:10;33.53;;;17.00;;
1531;SDS011;759;53.170;8.210;2022-12-24T05:35:35;32.13;;;14.30;;
1531;SDS011;759;53.170;8.210;2022-12-24T05:38:01;26.17;;;14.00;;
1531;SDS011;759;53.170;8.210;2022-12-24T05:40:26;31.00;;;15.00;;
1531;SDS011;759;53.170;8.210;2022-12-24T05:42:51;26.57;;;13.83;;
1531;SDS011;759;53.170;8.210;2022-12-24T05:45:17;34.70;;;14.65;;
1531;SDS011;759;53.170;8.210;2022-12-24T05:47:42;30.95;;;14.30;;
1531;SDS011;759;53.170;8.210;2022-12-24T05:52:33;23.93;;;12.10;;
1531;SDS011;759;53.170;8.210;2022-12-24T05:57:23;23.60;;;11.80;;
1531;SDS011;759;53.170;8.210;2022-12-24T05:59:49;23.77;;;11.77;;
1531;SDS011;759;53.170;8.210;2022-12-24T06:02:14;20.93;;;12.37;;
1531;SDS011;759;53.170;8.210;2022-12-24T06:04:39;19.80;;;10.90;;
1531;SDS011;759;53.170;8.210;2022-12-24T06:07:05;22.50;;;9.00;;
1531;SDS011;759;53.170;8.210;2022-12-24T06:09:30;23.43;;;8.77;;
1531;SDS011;759;53.170;8.210;2022-12-24T06:11:55;23.60;;;11.90;;
1531;SDS011;759;53.170;8.210;2022-12-24T06:19:11;16.00;;;8.60;;
1531;SDS011;759;53.170;8.210;2022-12-24T06:21:37;23.90;;;9.10;;
1531;SDS011;759;53.170;8.210;2022-12-24T06:24:02;20.00;;;9.10;;
1531;SDS011;759;53.170;8.210;2022-12-24T06:26:28;19.30;;;8.27;;
1531;SDS011;759;53.170;8.210;2022-12-24T06:28:53;20.70;;;9.50;;
1531;SDS011;759;53.170;8.210;2022-12-24T06:31:20;18.90;;;7.60;;
1531;SDS011;759;53.170;8.210;2022-12-24T06:33:46;18.30;;;8.50;;
